Time;durP1;ratioP1;P1;durP2;ratioP2;P2;SDS_P1;SDS_P2;PMS_P1;PMS_P2;Temp;Humidity;BMP_temperature;BMP_pressure;BME280_temperature;BME280_humidity;BME280_pressure;Samples;Min_cycle;Max_cycle;Signal;HPM_P1;HPM_P2
2022/04/06 00:00:47;;;;;;;4.03;3.03;;;7.40;78.00;;;;;;6280017;28;20195;-63
2022/04/06 00:03:48;;;;;;;4.70;3.33;;;7.50;77.80;;;;;;6273776;28;20188;-62
2022/04/06 00:06:52;;;;;;;4.40;3.13;;;7.40;78.10;;;;;;6267514;28;20192;-63
2022/04/06 00:09:53;;;;;;;3.87;3.03;;;7.40;78.00;;;;;;6282220;28;20189;-63
2022/04/06 00:12:55;;;;;;;4.70;2.63;;;7.30;78.30;;;;;;6282047;28;20280;-63
2022/04/06 00:15:56;;;;;;;3.57;2.70;;;7.30;78.20;;;;;;6265323;28;20196;-63
2022/04/06 00:18:57;;;;;;;4.57;2.60;;;7.30;78.30;;;;;;6282128;28;20192;-62
2022/04/06 00:21:58;;;;;;;3.50;2.03;;;7.30;78.50;;;;;;6265323;28;20220;-62
2022/04/06 00:24:59;;;;;;;2.40;2.03;;;7.30;78.10;;;;;;6265363;28;20312;-62
2022/04/06 00:28:00;;;;;;;3.33;2.53;;;7.20;78.20;;;;;;6264371;28;20232;-61
2022/04/06 00:31:01;;;;;;;3.57;2.43;;;7.30;78.50;;;;;;6281702;28;20200;-62
2022/04/06 00:34:02;;;;;;;4.10;2.30;;;7.30;78.50;;;;;;6265055;28;20318;-63
2022/04/06 00:37:03;;;;;;;3.53;2.07;;;7.30;78.30;;;;;;6281211;28;20197;-62
2022/04/06 00:40:05;;;;;;;2.93;1.93;;;7.20;77.90;;;;;;6281709;28;20204;-63
2022/04/06 00:43:07;;;;;;;5.40;1.80;;;7.20;78.00;;;;;;6280287;28;20703;-63
2022/04/06 00:46:08;;;;;;;2.20;2.00;;;7.20;78.00;;;;;;6281039;28;20226;-63
2022/04/06 00:49:14;;;;;;;2.10;1.73;;;7.10;78.30;;;;;;6281406;28;20197;-63
2022/04/06 00:52:15;;;;;;;2.13;1.60;;;7.10;79.00;;;;;;6265321;28;20322;-63
2022/04/06 00:55:16;;;;;;;2.70;1.90;;;7.10;78.90;;;;;;6265195;28;20204;-63
2022/04/06 00:58:17;;;;;;;2.47;2.00;;;7.00;78.90;;;;;;6280627;28;20248;-63
2022/04/06 01:01:18;;;;;;;3.93;2.00;;;7.00;79.00;;;;;;6278001;28;20216;-63
2022/04/06 01:04:21;;;;;;;2.70;2.20;;;7.00;79.00;;;;;;6264994;28;20211;-62
2022/04/06 01:07:25;;;;;;;2.73;1.67;;;7.00;78.90;;;;;;6273484;28;20239;-63
2022/04/06 01:10:26;;;;;;;2.03;1.83;;;6.80;79.50;;;;;;6264889;28;20239;-63
2022/04/06 01:13:28;;;;;;;2.20;2.00;;;6.90;79.40;;;;;;6281423;28;20252;-62
2022/04/06 01:16:29;;;;;;;2.87;1.97;;;6.80;79.40;;;;;;6283440;28;20220;-63
2022/04/06 01:19:32;;;;;;;3.70;2.17;;;6.70;79.70;;;;;;6286257;28;20192;-63
2022/04/06 01:22:34;;;;;;;3.83;2.23;;;6.70;79.70;;;;;;6286121;28;20219;-63
2022/04/06 01:25:38;;;;;;;2.37;1.97;;;6.60;79.70;;;;;;6269289;28;20671;-63
2022/04/06 01:28:39;;;;;;;2.30;1.97;;;6.70;79.60;;;;;;6244619;28;20252;-63
2022/04/06 01:31:40;;;;;;;2.77;2.10;;;6.60;79.50;;;;;;6277803;28;20208;-63
2022/04/06 01:34:41;;;;;;;3.20;2.33;;;6.60;79.40;;;;;;6277609;28;20221;-63
2022/04/06 01:37:43;;;;;;;2.17;1.97;;;6.60;79.70;;;;;;6261139;28;20182;-61
2022/04/06 01:40:43;;;;;;;2.60;1.77;;;6.50;79.80;;;;;;6277601;28;20200;-62
2022/04/06 01:43:45;;;;;;;3.73;2.00;;;6.50;80.10;;;;;;6282610;28;20284;-61
2022/04/06 01:46:45;;;;;;;4.20;2.03;;;6.50;80.20;;;;;;6290478;28;20248;-62
2022/04/06 01:53:07;;;;;;;2.37;1.63;;;6.60;80.30;;;;;;6291732;28;20191;-62
2022/04/06 01:56:09;;;;;;;2.40;1.70;;;6.50;80.60;;;;;;6277807;28;20197;-62
2022/04/06 01:59:09;;;;;;;2.57;2.00;;;6.50;80.50;;;;;;6288372;28;20200;-61
2022/04/06 02:02:13;;;;;;;3.17;1.80;;;6.60;80.50;;;;;;6267989;28;20257;-62
2022/04/06 02:05:14;;;;;;;2.50;1.70;;;6.60;80.60;;;;;;6285406;28;20196;-62
2022/04/06 02:08:15;;;;;;;3.00;1.97;;;6.60;80.80;;;;;;6285141;28;20250;-62
2022/04/06 02:11:16;;;;;;;2.30;1.97;;;6.60;80.30;;;;;;6284109;28;20246;-62
2022/04/06 02:14:17;;;;;;;2.17;1.80;;;6.60;80.40;;;;;;6262908;28;20192;-63
2022/04/06 02:17:18;;;;;;;3.20;2.00;;;6.60;80.40;;;;;;6288054;28;20199;-62
2022/04/06 02:20:19;;;;;;;3.23;2.00;;;6.50;80.50;;;;;;6266044;28;20218;-62
2022/04/06 02:23:20;;;;;;;3.53;2.37;;;6.50;80.60;;;;;;6276523;28;20216;-62
2022/04/06 02:26:20;;;;;;;2.70;2.50;;;6.50;80.50;;;;;;6269437;28;20185;-64
2022/04/06 02:29:21;;;;;;;3.80;2.10;;;6.50;80.40;;;;;;6242682;28;20234;-63
2022/04/06 02:32:22;;;;;;;2.87;2.40;;;6.50;80.30;;;;;;6238197;28;20240;-63
2022/04/06 02:35:23;;;;;;;3.03;2.03;;;6.40;80.50;;;;;;6235212;28;20250;-63
2022/04/06 02:38:24;;;;;;;2.23;1.80;;;6.40;80.60;;;;;;6235177;28;20189;-62
2022/04/06 02:41:25;;;;;;;5.03;2.10;;;6.30;80.70;;;;;;6250809;28;20218;-63
2022/04/06 02:44:25;;;;;;;2.10;1.90;;;6.30;80.70;;;;;;6234334;28;20186;-63
2022/04/06 02:47:26;;;;;;;2.60;2.17;;;6.30;81.00;;;;;;6226987;28;20337;-62
2022/04/06 02:50:27;;;;;;;2.43;2.03;;;6.20;81.00;;;;;;6253924;28;20289;-62
2022/04/06 02:53:28;;;;;;;4.27;2.23;;;6.20;81.10;;;;;;6251282;28;20245;-62
2022/04/06 02:56:28;;;;;;;2.70;2.10;;;6.20;81.10;;;;;;6251138;28;20190;-62
2022/04/06 02:59:29;;;;;;;2.30;1.70;;;6.30;81.00;;;;;;6251118;28;20191;-62
2022/04/06 03:02:30;;;;;;;1.90;1.40;;;6.30;81.10;;;;;;6234958;28;20214;-63
2022/04/06 03:05:31;;;;;;;2.03;1.40;;;6.30;81.20;;;;;;6251249;28;20194;-62
2022/04/06 03:08:32;;;;;;;3.73;1.50;;;6.30;81.00;;;;;;6234185;28;20197;-62
2022/04/06 03:11:32;;;;;;;1.73;1.50;;;6.30;81.30;;;;;;6238300;28;20210;-62
2022/04/06 03:14:33;;;;;;;3.37;1.80;;;6.30;81.30;;;;;;6235740;28;20209;-62
2022/04/06 03:17:35;;;;;;;3.17;1.60;;;6.30;81.10;;;;;;6234137;28;20198;-62
2022/04/06 03:20:36;;;;;;;2.83;1.50;;;6.30;81.30;;;;;;6250652;28;20563;-62
2022/04/06 03:23:37;;;;;;;1.97;1.60;;;6.30;81.40;;;;;;6234527;28;20212;-62
2022/04/06 03:26:38;;;;;;;2.27;1.40;;;6.30;81.60;;;;;;6266661;28;20221;-62
2022/04/06 03:29:40;;;;;;;1.60;1.27;;;6.20;81.80;;;;;;6234189;28;20241;-62
2022/04/06 03:32:41;;;;;;;2.47;1.40;;;6.20;82.00;;;;;;6282984;28;20669;-63
2022/04/06 03:35:42;;;;;;;3.60;2.03;;;6.20;82.00;;;;;;6271805;28;20287;-63
2022/04/06 03:38:43;;;;;;;2.97;1.73;;;6.10;81.70;;;;;;6282576;28;20271;-63
2022/04/06 03:41:44;;;;;;;2.27;1.37;;;6.10;81.60;;;;;;6276118;28;20230;-62
2022/04/06 03:44:45;;;;;;;1.80;1.43;;;6.00;81.60;;;;;;6276690;28;20196;-62
2022/04/06 03:47:45;;;;;;;1.73;1.37;;;6.00;81.90;;;;;;6271731;28;20285;-62
2022/04/06 03:50:46;;;;;;;4.17;1.80;;;5.90;81.60;;;;;;6273600;28;20203;-62
2022/04/06 03:53:47;;;;;;;1.53;1.43;;;5.90;81.60;;;;;;6263056;28;21330;-61
2022/04/06 03:56:48;;;;;;;2.70;1.50;;;5.90;81.90;;;;;;6240855;28;20202;-62
2022/04/06 03:59:49;;;;;;;1.50;1.40;;;6.00;81.80;;;;;;6233289;28;20186;-61
2022/04/06 04:02:49;;;;;;;2.13;1.50;;;6.00;81.90;;;;;;6216841;28;20209;-62
2022/04/06 04:05:50;;;;;;;1.90;1.53;;;6.00;82.00;;;;;;6217218;28;20244;-61
2022/04/06 04:08:51;;;;;;;5.17;2.53;;;6.10;82.20;;;;;;6231828;28;20201;-62
2022/04/06 04:11:52;;;;;;;3.43;1.97;;;6.10;82.20;;;;;;6267338;28;20197;-62
2022/04/06 04:14:52;;;;;;;3.60;1.97;;;6.00;82.10;;;;;;6275483;28;20226;-59
2022/04/06 04:17:53;;;;;;;2.50;1.80;;;6.00;81.80;;;;;;6277772;28;20268;-60
2022/04/06 04:21:32;;;;;;;1.57;1.33;;;6.00;81.70;;;;;;6267513;28;20229;-59
2022/04/06 04:24:15;;;;;;;1.53;1.13;;;6.00;81.80;;;;;;6284809;28;20198;-59
2022/04/06 04:27:16;;;;;;;2.07;1.43;;;6.00;82.10;;;;;;6278460;28;20188;-58
2022/04/06 04:30:17;;;;;;;2.00;1.50;;;6.10;82.00;;;;;;6246210;28;20305;-59
2022/04/06 04:33:17;;;;;;;2.13;1.73;;;6.10;82.00;;;;;;6236615;28;20256;-60
2022/04/06 04:36:18;;;;;;;2.33;1.53;;;6.20;82.10;;;;;;6270641;28;20264;-60
2022/04/06 04:39:19;;;;;;;2.40;1.70;;;6.20;82.20;;;;;;6285499;28;20213;-60
2022/04/06 04:42:20;;;;;;;2.63;1.90;;;6.20;82.40;;;;;;6297189;28;20200;-59
2022/04/06 04:45:21;;;;;;;2.17;1.43;;;6.20;82.20;;;;;;6269708;28;20211;-59
2022/04/06 04:48:22;;;;;;;3.73;1.77;;;6.30;82.10;;;;;;6280166;28;20185;-59
2022/04/06 04:51:22;;;;;;;2.43;1.63;;;6.20;82.20;;;;;;6290135;28;20191;-59
2022/04/06 04:54:24;;;;;;;3.83;1.73;;;6.20;82.20;;;;;;6280369;28;20284;-59
2022/04/06 04:57:25;;;;;;;1.77;1.17;;;6.20;82.20;;;;;;6285135;28;20196;-60
2022/04/06 05:00:26;;;;;;;3.20;1.73;;;6.30;82.20;;;;;;6274182;28;20196;-60
2022/04/06 05:03:27;;;;;;;6.90;2.20;;;6.10;82.50;;;;;;6302510;28;20250;-60
2022/04/06 05:06:28;;;;;;;3.80;1.60;;;6.20;82.40;;;;;;6287122;28;20200;-60
2022/04/06 05:09:29;;;;;;;2.53;1.60;;;6.20;82.20;;;;;;6273748;28;20184;-60
2022/04/06 05:12:29;;;;;;;3.57;1.80;;;6.20;82.10;;;;;;6276369;28;20196;-60
2022/04/06 05:15:31;;;;;;;2.87;1.70;;;6.30;82.30;;;;;;6298675;28;20189;-60
2022/04/06 05:18:32;;;;;;;2.03;1.60;;;6.30;82.30;;;;;;6285594;28;20200;-60
2022/04/06 05:21:32;;;;;;;2.13;1.60;;;6.30;82.40;;;;;;6298713;28;20219;-59
2022/04/06 05:24:33;;;;;;;2.73;1.87;;;6.40;82.30;;;;;;6277681;28;20187;-59
2022/04/06 05:27:49;;;;;;;3.17;1.70;;;6.40;82.30;;;;;;6273847;28;20200;-59
2022/04/06 05:30:50;;;;;;;6.13;3.70;;;6.50;82.20;;;;;;6288632;28;20206;-59
2022/04/06 05:33:51;;;;;;;14.37;7.70;;;6.60;82.30;;;;;;6276636;28;20229;-59
2022/04/06 05:36:52;;;;;;;12.73;6.47;;;6.70;82.50;;;;;;6281975;28;20219;-59
2022/04/06 05:39:53;;;;;;;4.90;2.30;;;6.80;82.30;;;;;;6275668;28;20188;-60
2022/04/06 05:42:53;;;;;;;3.50;2.10;;;6.80;82.90;;;;;;6269623;28;20217;-60
2022/04/06 05:45:54;;;;;;;4.23;2.53;;;6.90;82.90;;;;;;6267576;28;20221;-59
2022/04/06 05:48:55;;;;;;;3.77;2.47;;;6.90;82.70;;;;;;6285396;28;20182;-59
2022/04/06 05:51:56;;;;;;;3.70;2.70;;;7.00;82.90;;;;;;6270004;28;20197;-60
2022/04/06 05:54:57;;;;;;;4.10;1.90;;;7.10;82.60;;;;;;6268355;28;20285;-59
2022/04/06 05:57:58;;;;;;;3.40;2.00;;;7.20;82.40;;;;;;6262579;28;20205;-59
2022/04/06 06:00:59;;;;;;;3.33;1.53;;;7.30;82.00;;;;;;6280901;28;20197;-59
2022/04/06 06:03:59;;;;;;;2.80;1.90;;;7.30;81.60;;;;;;6275200;28;20195;-60
2022/04/06 06:07:01;;;;;;;2.57;1.83;;;7.40;81.10;;;;;;6251929;28;20200;-60
2022/04/06 06:10:03;;;;;;;2.77;1.60;;;7.60;80.70;;;;;;6293528;28;20182;-59
2022/04/06 06:13:03;;;;;;;1.60;1.33;;;7.60;81.10;;;;;;6245287;28;20213;-60
2022/04/06 06:16:05;;;;;;;2.07;1.63;;;7.70;80.60;;;;;;6276730;28;20199;-58
2022/04/06 06:19:05;;;;;;;3.33;1.87;;;7.70;80.00;;;;;;6293816;28;20233;-59
2022/04/06 06:22:06;;;;;;;3.27;2.00;;;7.80;79.70;;;;;;6292552;28;20221;-58
2022/04/06 06:25:08;;;;;;;3.43;2.33;;;7.70;79.60;;;;;;6301379;28;20189;-59
2022/04/06 06:28:09;;;;;;;2.17;1.50;;;7.70;79.50;;;;;;6307052;28;20239;-59
2022/04/06 06:31:10;;;;;;;12.63;2.33;;;7.70;79.30;;;;;;6312481;28;20204;-59
2022/04/06 06:34:11;;;;;;;19.23;5.53;;;7.70;79.30;;;;;;6284200;28;20195;-59
2022/04/06 06:37:12;;;;;;;5.40;3.00;;;7.80;79.60;;;;;;6277517;28;20202;-58
2022/04/06 06:40:13;;;;;;;10.67;2.37;;;7.70;79.50;;;;;;6296466;28;20196;-60
2022/04/06 06:43:15;;;;;;;4.50;2.03;;;7.70;79.30;;;;;;6279451;28;20234;-59
2022/04/06 06:46:17;;;;;;;3.90;2.13;;;7.80;79.30;;;;;;6310914;28;20192;-59
2022/04/06 06:49:19;;;;;;;6.07;2.77;;;7.80;78.60;;;;;;6310889;28;20216;-60
2022/04/06 06:52:19;;;;;;;2.73;1.53;;;7.80;78.20;;;;;;6290713;28;20242;-59
2022/04/06 06:55:22;;;;;;;4.07;1.90;;;7.90;78.40;;;;;;6269110;28;20223;-59
2022/04/06 06:58:23;;;;;;;6.23;2.03;;;7.90;78.40;;;;;;6299022;28;20211;-58
2022/04/06 07:01:24;;;;;;;3.13;1.60;;;8.00;78.60;;;;;;6274365;28;20212;-58
2022/04/06 07:04:25;;;;;;;2.40;1.90;;;8.00;78.60;;;;;;6293173;28;20212;-58
2022/04/06 07:07:26;;;;;;;2.43;1.47;;;8.10;79.10;;;;;;6307091;28;20262;-59
2022/04/06 07:10:29;;;;;;;2.50;1.73;;;8.10;78.30;;;;;;6293624;28;20180;-57
2022/04/06 07:13:30;;;;;;;3.03;2.23;;;8.10;78.30;;;;;;6293329;28;20213;-57
2022/04/06 07:16:30;;;;;;;2.43;1.70;;;8.20;77.70;;;;;;6295637;28;20223;-59
2022/04/06 07:19:31;;;;;;;3.30;1.70;;;8.30;77.60;;;;;;6284709;28;20227;-59
2022/04/06 07:22:32;;;;;;;1.87;1.63;;;8.30;77.20;;;;;;6283655;28;20213;-59
2022/04/06 07:25:34;;;;;;;1.93;1.60;;;8.40;76.80;;;;;;6270411;28;20319;-59
2022/04/06 07:28:35;;;;;;;3.33;2.10;;;8.50;76.50;;;;;;6255613;28;20240;-59
2022/04/06 07:31:36;;;;;;;4.40;3.53;;;8.60;75.70;;;;;;6275205;28;20197;-59
2022/04/06 07:34:37;;;;;;;3.60;2.40;;;8.70;75.30;;;;;;6296143;28;20269;-60
2022/04/06 07:37:41;;;;;;;4.63;2.40;;;8.80;74.90;;;;;;6279840;28;20192;-60
2022/04/06 07:40:42;;;;;;;3.27;2.33;;;8.90;74.00;;;;;;6296236;28;20205;-60
2022/04/06 07:43:44;;;;;;;3.60;2.87;;;9.00;73.80;;;;;;6262589;28;20216;-60
2022/04/06 07:46:45;;;;;;;3.00;2.47;;;9.20;72.50;;;;;;6279643;28;20242;-60
2022/04/06 07:49:46;;;;;;;3.37;2.43;;;9.40;70.50;;;;;;6278968;28;20192;-59
2022/04/06 07:52:47;;;;;;;2.80;2.60;;;9.60;70.30;;;;;;6254870;28;20202;-59
2022/04/06 07:55:49;;;;;;;3.17;2.40;;;9.70;70.40;;;;;;6266007;28;20185;-62
2022/04/06 07:58:50;;;;;;;2.77;2.17;;;9.90;70.50;;;;;;6265346;28;20219;-63
2022/04/06 08:01:51;;;;;;;6.60;3.50;;;10.00;70.20;;;;;;6282609;28;20299;-62
2022/04/06 08:04:51;;;;;;;3.30;2.70;;;10.10;69.10;;;;;;6299423;28;20185;-63
2022/04/06 08:07:53;;;;;;;3.30;2.10;;;10.30;68.00;;;;;;6285819;28;20196;-63
2022/04/06 08:10:54;;;;;;;2.50;2.27;;;10.40;68.20;;;;;;6282639;28;20184;-62
2022/04/06 08:13:54;;;;;;;4.63;2.57;;;10.50;67.30;;;;;;6276887;28;20190;-61
2022/04/06 08:16:55;;;;;;;2.43;1.93;;;10.60;67.20;;;;;;6282353;28;20213;-61
2022/04/06 08:19:56;;;;;;;4.63;2.70;;;10.70;67.40;;;;;;6298649;28;20418;-63
2022/04/06 08:22:57;;;;;;;6.07;3.27;;;10.70;67.50;;;;;;6281635;28;20216;-62
2022/04/06 08:25:58;;;;;;;4.57;2.60;;;10.80;68.20;;;;;;6282002;28;20188;-63
2022/04/06 08:28:59;;;;;;;3.27;2.00;;;10.90;67.90;;;;;;6264929;28;20224;-67
2022/04/06 08:32:00;;;;;;;3.53;2.80;;;11.00;66.50;;;;;;6298642;28;20184;-64
2022/04/06 08:35:01;;;;;;;3.23;2.17;;;11.10;65.60;;;;;;6281951;28;20292;-64
2022/04/06 08:38:03;;;;;;;3.33;2.33;;;11.30;65.00;;;;;;6276863;28;20197;-62
2022/04/06 08:41:06;;;;;;;3.73;3.13;;;11.30;65.60;;;;;;6257261;28;20178;-61
2022/04/06 08:44:09;;;;;;;3.57;2.70;;;11.50;63.30;;;;;;6286442;28;20205;-61
2022/04/06 08:47:11;;;;;;;4.17;2.50;;;11.70;62.30;;;;;;6298830;28;20185;-58
2022/04/06 08:50:11;;;;;;;3.67;2.60;;;11.90;63.30;;;;;;6284238;28;20185;-59
2022/04/06 08:53:12;;;;;;;3.93;2.37;;;12.00;62.70;;;;;;6277206;28;20215;-58
2022/04/06 08:56:14;;;;;;;3.77;1.93;;;12.20;61.20;;;;;;6297483;28;20197;-59
2022/04/06 08:59:15;;;;;;;2.50;1.80;;;12.30;61.10;;;;;;6293810;28;20193;-58
2022/04/06 09:02:20;;;;;;;2.67;1.60;;;12.30;61.50;;;;;;6256985;28;20217;-59
2022/04/06 09:05:23;;;;;;;1.63;1.50;;;12.40;61.10;;;;;;6273492;28;20190;-68
2022/04/06 09:08:39;;;;;;;2.03;1.83;;;12.50;60.60;;;;;;6281448;28;20285;-62
2022/04/06 09:11:44;;;;;;;3.47;1.80;;;12.60;60.20;;;;;;6294689;28;20201;-61
2022/04/06 09:14:46;;;;;;;2.63;2.00;;;12.80;59.90;;;;;;6286592;28;20214;-62
2022/04/06 09:17:49;;;;;;;2.10;1.90;;;13.00;58.40;;;;;;6256716;28;20204;-60
2022/04/06 09:21:00;;;;;;;3.30;2.30;;;13.10;58.00;;;;;;6275506;28;20197;-60
2022/04/06 09:24:00;;;;;;;3.80;2.20;;;13.30;56.40;;;;;;6331264;28;20201;-59
2022/04/06 09:27:04;;;;;;;3.90;2.20;;;13.50;56.00;;;;;;6281308;28;20192;-60
2022/04/06 09:30:06;;;;;;;2.90;2.07;;;13.50;56.00;;;;;;6289266;28;20234;-60
2022/04/06 09:33:13;;;;;;;5.33;3.20;;;13.50;56.70;;;;;;6283930;28;20204;-60
2022/04/06 09:36:19;;;;;;;2.70;2.50;;;13.60;55.90;;;;;;6289563;28;20617;-60
2022/04/06 09:39:40;;;;;;;5.10;3.67;;;13.60;55.40;;;;;;6274156;28;20205;-59
2022/04/06 09:42:50;;;;;;;6.17;3.17;;;13.70;54.60;;;;;;6294342;28;20210;-60
2022/04/06 09:49:13;;;;;;;4.93;3.30;;;13.80;55.40;;;;;;6286597;28;20195;-59
2022/04/06 09:52:15;;;;;;;4.73;4.03;;;13.80;55.20;;;;;;6293129;28;20273;-60
2022/04/06 09:55:18;;;;;;;5.43;3.80;;;13.80;55.30;;;;;;6219583;28;20194;-59
2022/04/06 09:58:20;;;;;;;5.17;3.93;;;13.90;54.00;;;;;;6245906;28;20199;-59
2022/04/06 10:01:21;;;;;;;4.77;3.83;;;14.00;54.70;;;;;;6258464;28;20202;-60
2022/04/06 10:04:26;;;;;;;5.20;4.27;;;14.20;53.70;;;;;;6293674;28;20193;-60
2022/04/06 10:07:28;;;;;;;6.60;4.20;;;14.30;54.10;;;;;;6247133;28;20190;-58
2022/04/06 10:10:30;;;;;;;6.23;4.03;;;14.40;53.80;;;;;;6260066;28;20248;-58
2022/04/06 10:13:31;;;;;;;7.03;4.20;;;14.60;53.30;;;;;;6257324;28;20199;-58
2022/04/06 10:16:34;;;;;;;6.23;3.90;;;14.70;52.90;;;;;;6252059;28;20201;-60
2022/04/06 10:19:45;;;;;;;5.03;3.67;;;14.80;51.70;;;;;;6262509;28;20664;-60
2022/04/06 10:23:16;;;;;;;5.03;4.13;;;15.00;51.10;;;;;;6293828;28;20214;-58
2022/04/06 10:26:20;;;;;;;3.43;3.13;;;15.10;51.30;;;;;;6260091;28;20186;-59
2022/04/06 10:29:21;;;;;;;5.87;4.10;;;15.20;53.10;;;;;;6276396;28;20302;-58
2022/04/06 10:32:39;;;;;;;5.13;4.13;;;15.30;52.20;;;;;;6293268;28;20186;-58
2022/04/06 10:35:40;;;;;;;6.27;3.90;;;15.40;51.00;;;;;;6272628;28;20198;-57
2022/04/06 10:38:41;;;;;;;6.80;4.07;;;15.50;52.90;;;;;;6251661;28;20199;-58
2022/04/06 10:42:11;;;;;;;4.17;3.70;;;15.60;54.30;;;;;;6251701;28;20309;-55
2022/04/06 10:45:24;;;;;;;4.53;4.07;;;15.80;53.40;;;;;;6290142;28;20202;-55
2022/04/06 10:48:25;;;;;;;5.57;4.10;;;15.90;50.80;;;;;;6276340;28;20183;-57
2022/04/06 10:51:33;;;;;;;7.20;4.37;;;16.00;49.70;;;;;;6285195;28;20200;-54
2022/04/06 10:54:41;;;;;;;5.10;4.53;;;16.10;51.20;;;;;;6310033;28;20229;-57
2022/04/06 10:58:02;;;;;;;5.37;4.37;;;16.30;49.60;;;;;;6259902;28;20182;-56
2022/04/06 11:01:18;;;;;;;8.80;5.40;;;16.60;48.10;;;;;;6292540;28;20197;-57
2022/04/06 11:04:21;;;;;;;5.77;4.63;;;16.70;48.20;;;;;;6292386;28;20233;-56
2022/04/06 11:11:37;;;;;;;5.10;4.07;;;17.00;48.40;;;;;;6313372;28;20186;-56
2022/04/06 11:14:39;;;;;;;4.63;4.07;;;17.10;48.90;;;;;;6257333;28;20197;-57
2022/04/06 11:17:44;;;;;;;5.30;4.80;;;17.30;48.00;;;;;;6310189;28;20231;-57
2022/04/06 11:20:45;;;;;;;5.77;4.67;;;17.30;46.10;;;;;;6272556;28;20206;-56
2022/04/06 11:23:45;;;;;;;4.83;4.33;;;17.50;46.60;;;;;;6275574;28;20202;-57
2022/04/06 11:26:47;;;;;;;5.30;4.80;;;17.70;47.20;;;;;;6275918;28;20219;-57
2022/04/06 11:29:47;;;;;;;5.30;4.80;;;17.70;45.40;;;;;;6306753;28;20236;-57
2022/04/06 11:32:54;;;;;;;4.90;4.50;;;17.80;45.90;;;;;;6294818;28;20205;-58
2022/04/06 11:35:54;;;;;;;5.30;4.73;;;17.80;45.80;;;;;;6291440;28;20191;-54
2022/04/06 11:38:55;;;;;;;8.70;5.07;;;17.90;46.70;;;;;;6290311;28;20204;-55
2022/04/06 11:41:57;;;;;;;6.60;5.40;;;18.20;48.20;;;;;;6263421;28;20209;-56
2022/04/06 11:44:58;;;;;;;6.17;4.93;;;18.40;44.40;;;;;;6274480;28;20198;-58
2022/04/06 11:48:01;;;;;;;5.87;5.23;;;18.70;44.30;;;;;;6290912;28;20257;-58
2022/04/06 11:51:04;;;;;;;4.77;4.10;;;18.80;43.40;;;;;;6233696;28;20201;-58
2022/04/06 11:54:05;;;;;;;6.33;4.63;;;19.00;44.90;;;;;;6270291;28;20207;-58
2022/04/06 11:57:06;;;;;;;9.17;5.33;;;19.30;43.70;;;;;;6266687;28;20209;-58
2022/04/06 12:00:12;;;;;;;6.73;5.00;;;19.30;41.10;;;;;;6259621;28;20481;-58
2022/04/06 12:03:17;;;;;;;5.43;4.93;;;19.50;42.60;;;;;;6272382;28;20210;-58
2022/04/06 12:06:18;;;;;;;4.83;4.27;;;19.70;41.00;;;;;;6284104;28;20198;-58
2022/04/06 12:09:21;;;;;;;5.93;5.33;;;19.90;41.90;;;;;;6251149;28;20197;-58
2022/04/06 12:12:23;;;;;;;5.30;4.87;;;20.30;42.80;;;;;;6265911;28;20208;-59
2022/04/06 12:15:24;;;;;;;6.40;4.53;;;20.50;40.40;;;;;;6252882;28;20193;-58
2022/04/06 12:18:27;;;;;;;5.70;5.00;;;20.70;38.90;;;;;;6274089;28;20185;-57
2022/04/06 12:21:29;;;;;;;5.40;4.83;;;21.50;36.80;;;;;;6290699;28;20301;-58
2022/04/06 12:24:41;;;;;;;4.40;4.00;;;25.80;30.20;;;;;;6287593;28;20200;-58
2022/04/06 12:27:42;;;;;;;3.93;3.60;;;30.10;26.50;;;;;;6266588;28;20191;-58
2022/04/06 12:30:52;;;;;;;4.70;3.47;;;33.20;22.10;;;;;;6240785;28;20214;-55
2022/04/06 12:33:53;;;;;;;5.07;4.20;;;35.40;20.20;;;;;;6290213;28;20239;-55
2022/04/06 12:36:54;;;;;;;4.00;3.43;;;37.00;17.60;;;;;;6256659;28;20201;-55
2022/04/06 12:39:57;;;;;;;4.33;3.93;;;37.20;17.80;;;;;;6260466;28;20284;-56
2022/04/06 12:42:57;;;;;;;4.63;3.70;;;37.30;16.90;;;;;;6298632;28;20217;-55
2022/04/06 12:45:58;;;;;;;4.07;3.77;;;37.40;17.90;;;;;;6281955;28;20227;-57
2022/04/06 12:49:19;;;;;;;5.53;4.37;;;38.20;17.60;;;;;;6281394;28;20289;-57
2022/04/06 12:52:25;;;;;;;4.60;4.20;;;37.70;17.00;;;;;;6313256;28;20240;-58
2022/04/06 12:55:26;;;;;;;4.10;3.80;;;37.40;16.70;;;;;;6285825;28;20200;-58
2022/04/06 12:58:27;;;;;;;5.37;4.33;;;35.60;18.30;;;;;;6282951;28;20193;-59
2022/04/06 13:01:27;;;;;;;4.20;3.63;;;35.90;18.40;;;;;;6265496;28;20232;-59
2022/04/06 13:04:28;;;;;;;6.27;3.60;;;35.10;19.10;;;;;;6274395;28;20235;-60
2022/04/06 13:07:30;;;;;;;4.10;3.70;;;34.20;19.20;;;;;;6268095;28;20235;-60
2022/04/06 13:10:34;;;;;;;4.13;3.73;;;34.10;20.30;;;;;;6307468;28;20325;-59
2022/04/06 13:13:35;;;;;;;5.17;4.10;;;35.30;19.80;;;;;;6276399;28;20207;-59
2022/04/06 13:16:35;;;;;;;4.07;3.67;;;35.80;18.40;;;;;;6283481;28;20200;-60
2022/04/06 13:19:36;;;;;;;11.00;3.27;;;36.30;17.80;;;;;;6297485;28;20269;-59
2022/04/06 13:22:38;;;;;;;4.07;3.77;;;36.40;18.70;;;;;;6297555;28;20215;-60
2022/04/06 13:25:42;;;;;;;3.50;3.20;;;36.90;17.10;;;;;;6291364;28;20264;-60
2022/04/06 13:28:43;;;;;;;3.90;3.60;;;36.50;18.30;;;;;;6264293;28;20264;-60
2022/04/06 13:31:44;;;;;;;4.30;3.43;;;37.70;17.00;;;;;;6297412;28;20185;-60
2022/04/06 13:34:45;;;;;;;3.73;3.43;;;36.10;17.90;;;;;;6280697;28;20256;-59
2022/04/06 13:37:46;;;;;;;4.07;3.67;;;36.40;18.20;;;;;;6301890;28;20197;-64
2022/04/06 13:40:47;;;;;;;5.77;4.10;;;36.90;18.20;;;;;;6324339;28;20200;-63
2022/04/06 13:43:48;;;;;;;6.30;4.40;;;36.90;17.60;;;;;;6296148;28;20208;-64
2022/04/06 13:46:51;;;;;;;4.60;4.03;;;36.90;16.80;;;;;;6273441;28;20189;-63
2022/04/06 13:49:51;;;;;;;4.43;4.10;;;36.30;17.50;;;;;;6304459;28;20273;-63
2022/04/06 13:52:52;;;;;;;3.80;3.47;;;36.70;17.30;;;;;;6274662;28;20199;-63
2022/04/06 13:55:53;;;;;;;3.83;3.47;;;37.40;17.20;;;;;;6263722;28;20192;-64
2022/04/06 13:58:54;;;;;;;5.57;4.10;;;37.80;17.80;;;;;;6283838;28;20193;-64
2022/04/06 14:01:54;;;;;;;4.60;4.20;;;37.70;17.00;;;;;;6311838;28;20224;-64
2022/04/06 14:04:55;;;;;;;4.97;4.47;;;37.20;17.40;;;;;;6272051;28;20194;-64
2022/04/06 14:07:57;;;;;;;6.27;5.10;;;36.70;18.20;;;;;;6266504;28;20216;-64
2022/04/06 14:10:58;;;;;;;6.10;5.57;;;36.50;18.10;;;;;;6292154;28;20276;-64
2022/04/06 14:13:59;;;;;;;9.03;6.60;;;35.40;19.60;;;;;;6256267;28;20272;-64
2022/04/06 14:17:00;;;;;;;6.40;5.00;;;34.70;19.80;;;;;;6268541;28;20193;-64
2022/04/06 14:20:00;;;;;;;5.50;4.77;;;34.00;21.70;;;;;;6291529;28;20192;-64
2022/04/06 14:23:01;;;;;;;5.00;4.60;;;32.20;22.20;;;;;;6297222;28;20241;-64
2022/04/06 14:26:02;;;;;;;6.33;5.40;;;30.90;24.40;;;;;;6327113;28;20191;-64
2022/04/06 14:29:04;;;;;;;6.93;5.80;;;30.70;23.80;;;;;;6306640;28;20240;-64
2022/04/06 14:32:05;;;;;;;6.43;4.50;;;30.10;24.20;;;;;;6285560;28;20194;-64
2022/04/06 14:35:07;;;;;;;6.30;4.17;;;30.20;24.90;;;;;;6299107;28;20256;-63
2022/04/06 14:38:07;;;;;;;4.67;3.80;;;30.90;25.00;;;;;;6283936;28;20185;-63
2022/04/06 14:41:09;;;;;;;5.50;4.23;;;30.70;24.00;;;;;;6284482;28;20251;-64
2022/04/06 14:44:10;;;;;;;6.87;4.53;;;30.10;23.60;;;;;;6271168;28;20218;-64
2022/04/06 14:47:11;;;;;;;7.13;6.43;;;29.20;25.70;;;;;;6259401;28;20178;-64
2022/04/06 14:50:12;;;;;;;5.80;5.30;;;28.30;27.20;;;;;;6288308;28;20251;-63
2022/04/06 14:53:16;;;;;;;5.50;5.00;;;26.60;28.30;;;;;;6287448;28;20285;-63
2022/04/06 14:56:16;;;;;;;6.60;6.00;;;25.30;30.80;;;;;;6292508;28;20212;-64
2022/04/06 14:59:18;;;;;;;6.20;5.60;;;25.10;31.90;;;;;;6312027;28;20189;-64
2022/04/06 15:02:18;;;;;;;6.30;5.67;;;25.90;31.30;;;;;;6325880;28;20250;-63
2022/04/06 15:05:19;;;;;;;7.60;6.90;;;26.40;30.90;;;;;;6284036;28;20197;-63
2022/04/06 15:08:20;;;;;;;6.37;5.87;;;26.40;29.20;;;;;;6284442;28;20201;-63
2022/04/06 15:11:21;;;;;;;6.00;5.50;;;26.90;28.90;;;;;;6257921;28;20588;-64
2022/04/06 15:14:22;;;;;;;7.60;5.87;;;27.30;28.30;;;;;;6302688;28;20192;-63
2022/04/06 15:17:22;;;;;;;7.50;5.70;;;27.60;28.50;;;;;;6307690;28;20193;-64
2022/04/06 15:20:23;;;;;;;5.43;4.93;;;27.60;28.50;;;;;;6286832;28;20184;-63
2022/04/06 15:23:24;;;;;;;6.67;5.63;;;27.60;27.70;;;;;;6294040;28;20224;-64
2022/04/06 15:26:25;;;;;;;4.90;4.47;;;27.60;27.00;;;;;;6279174;28;20290;-63
2022/04/06 15:29:25;;;;;;;5.90;4.80;;;27.50;29.00;;;;;;6291712;28;20330;-64
2022/04/06 15:32:26;;;;;;;5.73;5.13;;;27.70;27.60;;;;;;6308602;28;20207;-64
2022/04/06 15:38:46;;;;;;;5.03;4.53;;;27.40;28.60;;;;;;6312941;28;20186;-63
2022/04/06 15:41:47;;;;;;;4.93;4.43;;;27.50;27.50;;;;;;6286478;28;20224;-63
2022/04/06 15:44:52;;;;;;;6.47;5.33;;;27.20;27.90;;;;;;6283090;28;20269;-63
2022/04/06 15:47:53;;;;;;;6.23;5.63;;;27.10;27.50;;;;;;6303281;28;20249;-63
2022/04/06 15:50:54;;;;;;;8.07;5.37;;;27.00;28.00;;;;;;6294124;28;20196;-63
2022/04/06 15:53:54;;;;;;;8.00;5.63;;;26.70;27.60;;;;;;6265856;28;20231;-63
2022/04/06 15:56:56;;;;;;;6.07;5.43;;;26.80;27.00;;;;;;6282296;28;20197;-64
2022/04/06 15:59:57;;;;;;;6.83;5.23;;;26.50;27.40;;;;;;6282710;28;20251;-64
2022/04/06 16:02:57;;;;;;;5.90;5.30;;;26.30;28.60;;;;;;6268308;28;20222;-63
2022/04/06 16:05:59;;;;;;;6.57;5.87;;;26.00;29.70;;;;;;6274444;28;20276;-64
2022/04/06 16:09:00;;;;;;;7.90;6.07;;;25.60;29.50;;;;;;6274584;28;20166;-64